Time;durP1;ratioP1;P1;durP2;ratioP2;P2;SDS_P1;SDS_P2;PMS_P1;PMS_P2;Temp;Humidity;BMP_temperature;BMP_pressure;BME280_temperature;BME280_humidity;BME280_pressure;Samples;Min_cycle;Max_cycle;Signal;HPM_P1;HPM_P2
2023/11/24 00:00:46;;;;;;;16.80;3.47;;;7.60;99.90;;;;;;5115188;28;20442;-80
2023/11/24 00:03:14;;;;;;;9.67;3.30;;;7.50;99.90;;;;;;5114014;28;20478;-80
2023/11/24 00:05:42;;;;;;;9.40;3.73;;;7.50;99.90;;;;;;5113973;28;20436;-81
2023/11/24 00:08:10;;;;;;;9.77;3.30;;;7.40;99.90;;;;;;5113459;28;20561;-81
2023/11/24 00:10:38;;;;;;;8.63;3.30;;;7.40;99.90;;;;;;5113801;28;20541;-80
2023/11/24 00:13:08;;;;;;;11.20;3.90;;;7.40;99.90;;;;;;5116445;28;20463;-80
2023/11/24 00:15:36;;;;;;;11.60;2.97;;;7.40;99.90;;;;;;5117557;28;20472;-80
2023/11/24 00:18:06;;;;;;;9.67;3.43;;;7.30;99.90;;;;;;5118894;28;20479;-80
2023/11/24 00:20:34;;;;;;;12.53;3.47;;;7.30;99.90;;;;;;5117835;28;20949;-80
2023/11/24 00:23:02;;;;;;;12.23;3.40;;;7.20;99.90;;;;;;5117224;28;20876;-81
2023/11/24 00:25:32;;;;;;;10.93;3.73;;;7.20;99.90;;;;;;5117170;28;20453;-80
2023/11/24 00:28:00;;;;;;;9.30;3.63;;;7.20;99.90;;;;;;5118187;28;20821;-79
2023/11/24 00:30:30;;;;;;;9.33;3.80;;;7.20;99.90;;;;;;5117204;28;20440;-80
2023/11/24 00:32:58;;;;;;;9.60;3.47;;;7.20;99.90;;;;;;5117387;28;20469;-80
2023/11/24 00:35:26;;;;;;;16.37;4.80;;;7.20;99.90;;;;;;5116709;28;20443;-80
2023/11/24 00:37:54;;;;;;;12.53;3.40;;;7.20;99.90;;;;;;5117087;28;20449;-80
2023/11/24 00:40:22;;;;;;;14.40;4.23;;;7.20;99.90;;;;;;5117468;28;20533;-81
2023/11/24 00:42:50;;;;;;;18.13;4.50;;;7.20;99.90;;;;;;5116662;28;20473;-80
2023/11/24 00:45:19;;;;;;;17.90;4.73;;;7.20;99.90;;;;;;5117204;28;20447;-80
2023/11/24 00:47:48;;;;;;;17.73;4.10;;;7.20;99.90;;;;;;5116772;28;20467;-81
2023/11/24 00:50:17;;;;;;;11.80;4.40;;;7.20;99.90;;;;;;5117211;28;20867;-80
2023/11/24 00:52:45;;;;;;;16.03;4.10;;;7.20;99.90;;;;;;5116778;28;20998;-80
2023/11/24 00:55:13;;;;;;;17.47;4.90;;;7.20;99.90;;;;;;5116552;28;20441;-80
2023/11/24 00:57:42;;;;;;;14.37;4.93;;;7.20;99.90;;;;;;5116620;28;20553;-79
2023/11/24 01:00:12;;;;;;;14.30;5.20;;;7.20;99.90;;;;;;5116559;28;20453;-80
2023/11/24 01:02:40;;;;;;;17.93;5.00;;;7.20;99.90;;;;;;5116364;28;20473;-79
2023/11/24 01:05:10;;;;;;;16.23;5.00;;;7.20;99.90;;;;;;5116289;28;20499;-80
2023/11/24 01:07:38;;;;;;;18.73;4.57;;;7.20;99.90;;;;;;5116517;28;20994;-80
2023/11/24 01:10:08;;;;;;;19.03;4.90;;;7.20;99.90;;;;;;5116875;28;20448;-79
2023/11/24 01:12:37;;;;;;;14.20;4.27;;;7.20;99.90;;;;;;5116261;28;20476;-81
2023/11/24 01:15:08;;;;;;;10.87;3.80;;;7.20;99.90;;;;;;5115808;28;20437;-81
2023/11/24 01:17:37;;;;;;;10.70;3.27;;;7.20;99.90;;;;;;5117565;28;20496;-82
2023/11/24 01:20:09;;;;;;;9.43;3.00;;;7.20;99.90;;;;;;5117811;28;20455;-81
2023/11/24 01:22:40;;;;;;;8.10;2.70;;;7.20;99.90;;;;;;5117240;28;20473;-81
2023/11/24 01:25:09;;;;;;;6.53;2.50;;;7.20;99.90;;;;;;5116664;28;20470;-81
2023/11/24 01:27:37;;;;;;;6.63;2.80;;;7.10;99.90;;;;;;5116854;28;20547;-81
2023/11/24 01:30:08;;;;;;;8.93;2.93;;;7.10;99.90;;;;;;5117336;28;20951;-81
2023/11/24 01:32:37;;;;;;;8.57;3.23;;;7.10;99.90;;;;;;5116661;28;20890;-81
2023/11/24 01:35:06;;;;;;;7.60;2.53;;;7.00;99.90;;;;;;5116706;28;20453;-81
2023/11/24 01:37:34;;;;;;;11.10;3.13;;;7.00;99.90;;;;;;5116786;28;20501;-80
2023/11/24 01:40:05;;;;;;;11.17;4.07;;;6.90;99.90;;;;;;5116664;28;20492;-81
2023/11/24 01:42:36;;;;;;;16.63;4.10;;;7.00;99.90;;;;;;5117621;28;20468;-80
2023/11/24 01:45:07;;;;;;;12.47;4.30;;;7.00;99.90;;;;;;5121124;28;20438;-79
2023/11/24 01:47:37;;;;;;;11.90;3.77;;;6.90;99.90;;;;;;5120602;28;20460;-79
2023/11/24 01:50:08;;;;;;;14.20;4.30;;;6.90;99.90;;;;;;5119816;28;20446;-79
2023/11/24 01:52:37;;;;;;;9.20;2.90;;;6.90;99.90;;;;;;5119164;28;20495;-79
2023/11/24 01:55:07;;;;;;;15.97;4.90;;;7.00;99.90;;;;;;5119544;28;20502;-80
2023/11/24 01:57:36;;;;;;;14.57;3.50;;;7.00;99.90;;;;;;5119947;28;20462;-79
2023/11/24 02:00:05;;;;;;;13.83;4.60;;;7.00;99.90;;;;;;5119200;28;20441;-79
2023/11/24 02:02:40;;;;;;;9.70;3.73;;;7.00;99.90;;;;;;5121136;28;20477;-80
2023/11/24 02:05:10;;;;;;;12.37;4.20;;;6.90;99.90;;;;;;5119220;28;20449;-80
2023/11/24 02:07:38;;;;;;;12.53;3.30;;;7.00;99.90;;;;;;5118688;28;20483;-80
2023/11/24 02:10:11;;;;;;;12.97;3.90;;;6.90;99.90;;;;;;5118654;28;20453;-80
2023/11/24 02:12:39;;;;;;;12.20;2.87;;;6.90;99.90;;;;;;5118408;28;20537;-78
2023/11/24 02:15:09;;;;;;;8.27;3.27;;;6.90;99.90;;;;;;5118845;28;20434;-77
2023/11/24 02:17:38;;;;;;;8.37;2.87;;;7.00;99.90;;;;;;5118540;28;20819;-79
2023/11/24 02:20:11;;;;;;;8.33;2.50;;;7.00;99.90;;;;;;5118405;28;20444;-80
2023/11/24 02:22:42;;;;;;;8.93;2.07;;;7.00;99.90;;;;;;5118504;28;20472;-80
2023/11/24 02:25:11;;;;;;;8.10;2.30;;;7.00;99.90;;;;;;5118746;28;20485;-79
2023/11/24 02:27:39;;;;;;;7.63;1.97;;;7.00;99.90;;;;;;5117877;28;20478;-79
2023/11/24 02:30:09;;;;;;;7.63;2.20;;;7.20;99.90;;;;;;5118093;28;20791;-80
2023/11/24 02:32:37;;;;;;;8.50;2.73;;;7.00;99.90;;;;;;5117115;28;20458;-79
2023/11/24 02:35:06;;;;;;;7.63;2.23;;;7.00;99.90;;;;;;5117254;28;20537;-80
2023/11/24 02:37:34;;;;;;;8.43;2.60;;;7.00;99.90;;;;;;5119080;28;20449;-79
2023/11/24 02:40:05;;;;;;;11.77;3.17;;;7.00;99.90;;;;;;5118413;28;20442;-79
2023/11/24 02:42:34;;;;;;;6.80;2.47;;;6.90;99.90;;;;;;5120079;28;20473;-83
2023/11/24 02:45:03;;;;;;;7.67;2.00;;;6.90;99.90;;;;;;5118740;28;20442;-81
2023/11/24 02:47:31;;;;;;;4.10;1.37;;;6.90;99.90;;;;;;5117748;28;20481;-81
2023/11/24 02:50:00;;;;;;;6.37;1.57;;;6.80;99.90;;;;;;5120390;28;20466;-82
2023/11/24 02:52:28;;;;;;;5.23;1.80;;;6.70;99.90;;;;;;5122130;28;20468;-81
2023/11/24 02:54:56;;;;;;;4.10;1.30;;;6.70;99.90;;;;;;5122107;28;20869;-82
2023/11/24 02:57:26;;;;;;;6.00;1.00;;;6.60;99.90;;;;;;5121109;28;20469;-81
2023/11/24 02:59:54;;;;;;;3.10;1.20;;;6.60;99.90;;;;;;5119887;28;20451;-82
2023/11/24 03:02:22;;;;;;;2.70;1.10;;;6.50;99.90;;;;;;5118735;28;20548;-80
2023/11/24 03:04:51;;;;;;;5.13;1.43;;;6.40;99.90;;;;;;5118204;28;20859;-80
2023/11/24 03:07:19;;;;;;;4.97;1.40;;;6.40;99.90;;;;;;5119169;28;20445;-81
2023/11/24 03:09:47;;;;;;;3.47;1.53;;;6.30;99.90;;;;;;5119157;28;20465;-79
2023/11/24 03:12:16;;;;;;;4.60;1.10;;;6.30;99.90;;;;;;5117702;28;20453;-79
2023/11/24 03:14:47;;;;;;;4.13;1.40;;;6.30;99.90;;;;;;5116231;28;20449;-80
2023/11/24 03:17:16;;;;;;;3.70;2.30;;;6.30;99.90;;;;;;5116420;28;20449;-80
2023/11/24 03:19:44;;;;;;;3.83;1.20;;;6.30;99.90;;;;;;5117185;28;20886;-81
2023/11/24 03:22:12;;;;;;;4.50;1.67;;;6.30;99.90;;;;;;5116766;28;20496;-80
2023/11/24 03:24:41;;;;;;;5.73;1.93;;;6.30;99.90;;;;;;5116841;28;20455;-80
2023/11/24 03:27:09;;;;;;;7.33;2.00;;;6.30;99.90;;;;;;5116727;28;20470;-79
2023/11/24 03:29:37;;;;;;;6.00;1.53;;;6.30;99.90;;;;;;5116448;28;20883;-79
2023/11/24 03:32:07;;;;;;;6.57;1.53;;;6.30;99.90;;;;;;5116312;28;20502;-80
2023/11/24 03:34:36;;;;;;;6.70;1.60;;;6.30;99.90;;;;;;5116598;28;20538;-80
2023/11/24 03:37:05;;;;;;;3.70;1.63;;;6.30;99.90;;;;;;5117080;28;20486;-79
2023/11/24 03:39:33;;;;;;;6.47;1.80;;;6.30;99.90;;;;;;5116767;28;20967;-79
2023/11/24 03:42:03;;;;;;;5.80;1.73;;;6.30;99.90;;;;;;5116324;28;20468;-80
2023/11/24 03:44:31;;;;;;;6.00;1.73;;;6.30;99.90;;;;;;5118839;28;20448;-79
2023/11/24 03:46:59;;;;;;;8.53;2.40;;;6.20;99.90;;;;;;5118098;28;20808;-80
2023/11/24 03:49:29;;;;;;;7.17;2.20;;;6.20;99.90;;;;;;5122519;28;20558;-79
2023/11/24 03:51:57;;;;;;;3.23;1.93;;;6.20;99.90;;;;;;5121542;28;20491;-80
2023/11/24 03:54:25;;;;;;;7.57;2.17;;;6.20;99.90;;;;;;5121191;28;20506;-81
2023/11/24 03:56:53;;;;;;;4.57;1.93;;;6.20;99.90;;;;;;5121755;28;20475;-80
2023/11/24 03:59:22;;;;;;;5.80;1.70;;;6.20;99.90;;;;;;5120681;28;20816;-79
2023/11/24 04:01:50;;;;;;;5.83;1.80;;;6.20;99.90;;;;;;5119933;28;20478;-80
2023/11/24 04:04:19;;;;;;;7.40;1.30;;;6.20;99.90;;;;;;5119804;28;20454;-80
2023/11/24 04:06:49;;;;;;;6.80;2.10;;;6.20;99.90;;;;;;5121031;28;20526;-79
2023/11/24 04:09:17;;;;;;;5.50;2.17;;;6.20;99.90;;;;;;5120530;28;20485;-80
2023/11/24 04:11:45;;;;;;;5.30;1.70;;;6.20;99.90;;;;;;5121124;28;20493;-81
2023/11/24 04:14:13;;;;;;;6.70;2.00;;;6.10;99.90;;;;;;5126162;28;20523;-81
2023/11/24 04:16:42;;;;;;;6.17;1.70;;;6.10;99.90;;;;;;5125814;28;20481;-81
2023/11/24 04:19:11;;;;;;;4.60;2.07;;;6.10;99.90;;;;;;5124811;28;20475;-80
2023/11/24 04:21:40;;;;;;;3.77;1.50;;;6.10;99.90;;;;;;5124545;28;20483;-80
2023/11/24 04:24:10;;;;;;;7.97;1.97;;;6.10;99.90;;;;;;5122330;28;20455;-80
2023/11/24 04:26:39;;;;;;;5.17;1.40;;;6.00;99.90;;;;;;5120186;28;20537;-79
2023/11/24 04:29:07;;;;;;;6.43;1.70;;;6.00;99.90;;;;;;5120849;28;20498;-79
2023/11/24 04:31:35;;;;;;;5.47;1.50;;;6.00;99.90;;;;;;5119981;28;20483;-80
2023/11/24 04:34:03;;;;;;;6.40;2.27;;;6.00;99.90;;;;;;5120673;28;20530;-79
2023/11/24 04:36:32;;;;;;;7.10;1.80;;;6.00;99.90;;;;;;5120448;28;20812;-79
2023/11/24 04:39:00;;;;;;;6.53;1.60;;;6.00;99.90;;;;;;5119290;28;20459;-79
2023/11/24 04:41:29;;;;;;;5.73;1.60;;;5.90;99.90;;;;;;5120091;28;20476;-79
2023/11/24 04:43:58;;;;;;;12.87;1.83;;;5.90;99.90;;;;;;5121146;28;20506;-80
2023/11/24 04:46:26;;;;;;;7.10;2.87;;;5.90;99.90;;;;;;5121236;27;20975;-79
2023/11/24 04:48:54;;;;;;;5.87;1.53;;;5.90;99.90;;;;;;5120051;28;20455;-79
2023/11/24 04:51:22;;;;;;;4.70;1.70;;;5.90;99.90;;;;;;5120975;28;20446;-80
2023/11/24 04:53:50;;;;;;;8.93;2.03;;;5.80;99.90;;;;;;5119789;28;20519;-80
2023/11/24 04:56:18;;;;;;;5.47;1.60;;;5.90;99.90;;;;;;5120886;28;20498;-80
2023/11/24 04:58:48;;;;;;;6.33;1.90;;;5.90;99.90;;;;;;5118756;28;20936;-79
2023/11/24 05:01:18;;;;;;;5.40;2.63;;;5.80;99.90;;;;;;5118806;28;20452;-79
2023/11/24 05:03:48;;;;;;;11.50;3.30;;;5.80;99.90;;;;;;5119084;28;20449;-79
2023/11/24 05:06:17;;;;;;;7.13;1.70;;;5.80;99.90;;;;;;5121257;28;20430;-80
2023/11/24 05:08:45;;;;;;;7.73;2.07;;;5.80;99.90;;;;;;5119230;28;20456;-79
2023/11/24 05:11:16;;;;;;;8.23;2.03;;;5.80;99.90;;;;;;5119194;28;20491;-80
2023/11/24 05:13:45;;;;;;;4.73;1.50;;;5.80;99.90;;;;;;5121165;28;20856;-79
2023/11/24 05:16:17;;;;;;;5.13;2.60;;;5.80;99.90;;;;;;5119081;28;20444;-79
2023/11/24 05:18:45;;;;;;;6.40;1.93;;;5.70;99.90;;;;;;5119378;28;20443;-79
2023/11/24 05:21:14;;;;;;;5.30;1.73;;;5.70;99.90;;;;;;5119328;28;20463;-79
2023/11/24 05:23:42;;;;;;;9.67;2.47;;;5.70;99.90;;;;;;5120320;28;20483;-79
2023/11/24 05:26:10;;;;;;;4.80;1.23;;;5.60;99.90;;;;;;5118357;28;20873;-79
2023/11/24 05:28:38;;;;;;;6.53;1.77;;;5.60;99.90;;;;;;5119556;28;20449;-79
2023/11/24 05:31:07;;;;;;;5.13;1.20;;;5.60;99.90;;;;;;5120856;28;20510;-80
2023/11/24 05:33:36;;;;;;;5.63;1.60;;;5.60;99.90;;;;;;5119304;28;20443;-79
2023/11/24 05:36:09;;;;;;;2.27;1.53;;;5.60;99.90;;;;;;5118791;28;20439;-79
2023/11/24 05:38:38;;;;;;;5.63;1.53;;;5.60;99.90;;;;;;5120119;28;20456;-79
2023/11/24 05:41:06;;;;;;;9.23;1.90;;;5.60;99.90;;;;;;5120954;28;20455;-79
2023/11/24 05:43:35;;;;;;;5.33;1.93;;;5.50;99.90;;;;;;5120903;28;20997;-78
2023/11/24 05:46:03;;;;;;;5.83;1.40;;;5.50;99.90;;;;;;5120081;28;20778;-78
2023/11/24 05:48:32;;;;;;;5.57;1.70;;;5.50;99.90;;;;;;5120630;28;20443;-79
2023/11/24 05:51:02;;;;;;;5.93;1.97;;;5.50;99.90;;;;;;5119451;28;21003;-79
2023/11/24 05:53:30;;;;;;;8.73;2.30;;;5.60;99.90;;;;;;5122402;28;20967;-79
2023/11/24 05:55:58;;;;;;;6.13;1.53;;;5.50;99.90;;;;;;5120932;28;20542;-79
2023/11/24 05:58:27;;;;;;;5.40;1.57;;;5.50;99.90;;;;;;5119000;28;20502;-79
2023/11/24 06:00:55;;;;;;;4.57;1.67;;;5.50;99.90;;;;;;5119700;28;21023;-80
2023/11/24 06:03:23;;;;;;;9.23;2.10;;;5.50;99.90;;;;;;5118852;28;20456;-79
2023/11/24 06:05:52;;;;;;;4.93;1.93;;;5.50;99.90;;;;;;5121630;28;20855;-79
2023/11/24 06:08:22;;;;;;;4.70;1.37;;;5.50;99.90;;;;;;5119937;28;20563;-79
2023/11/24 06:10:50;;;;;;;4.70;1.50;;;5.50;99.90;;;;;;5120110;28;20462;-79
2023/11/24 06:13:18;;;;;;;6.00;2.37;;;5.50;99.90;;;;;;5119990;28;20480;-80
2023/11/24 06:15:46;;;;;;;9.67;2.37;;;5.50;99.90;;;;;;5115181;28;20446;-80
2023/11/24 06:18:15;;;;;;;6.10;1.90;;;5.50;99.90;;;;;;5118527;28;20423;-81
2023/11/24 06:20:43;;;;;;;5.57;2.43;;;5.50;99.90;;;;;;5116446;28;20526;-82
2023/11/24 06:23:11;;;;;;;5.60;2.60;;;5.60;99.90;;;;;;5115502;28;21037;-81
2023/11/24 06:25:41;;;;;;;6.33;1.87;;;5.50;99.90;;;;;;5116644;28;21046;-80
2023/11/24 06:28:09;;;;;;;8.13;2.07;;;5.50;99.90;;;;;;5116806;28;20987;-81
2023/11/24 06:30:38;;;;;;;6.47;2.07;;;5.50;99.90;;;;;;5115512;28;20474;-80
2023/11/24 06:33:06;;;;;;;6.43;1.90;;;5.60;99.90;;;;;;5115653;28;21003;-81
2023/11/24 06:35:35;;;;;;;5.70;2.13;;;5.60;99.90;;;;;;5115227;28;20544;-81
2023/11/24 06:38:03;;;;;;;7.50;2.10;;;5.60;99.90;;;;;;5115385;28;20869;-82
2023/11/24 06:40:31;;;;;;;5.40;1.80;;;5.60;99.90;;;;;;5115774;28;20483;-82
2023/11/24 06:43:00;;;;;;;6.77;2.27;;;5.60;99.90;;;;;;5116111;28;20463;-81
2023/11/24 06:45:29;;;;;;;6.43;1.70;;;5.60;99.90;;;;;;5116419;28;20532;-82
2023/11/24 06:47:57;;;;;;;8.10;2.03;;;5.60;99.90;;;;;;5115672;28;20812;-82
2023/11/24 06:50:25;;;;;;;4.50;2.53;;;5.70;99.90;;;;;;5115558;28;20508;-82
2023/11/24 06:52:53;;;;;;;10.00;2.50;;;5.60;99.90;;;;;;5117010;28;20508;-82
2023/11/24 06:55:22;;;;;;;6.03;1.80;;;5.60;99.90;;;;;;5115395;28;20449;-82
2023/11/24 06:57:50;;;;;;;7.90;3.30;;;5.60;99.90;;;;;;5115178;28;20479;-81
2023/11/24 07:00:20;;;;;;;7.30;2.03;;;5.60;99.90;;;;;;5115524;28;20975;-80
2023/11/24 07:02:49;;;;;;;5.80;1.80;;;5.60;99.90;;;;;;5115679;28;20478;-82
2023/11/24 07:05:18;;;;;;;6.67;3.07;;;5.60;99.90;;;;;;5115257;28;20447;-82
2023/11/24 07:07:46;;;;;;;7.37;2.00;;;5.60;99.90;;;;;;5115197;28;20528;-80
2023/11/24 07:10:14;;;;;;;6.90;2.17;;;5.60;99.90;;;;;;5115191;28;21016;-81
2023/11/24 07:12:43;;;;;;;6.47;1.70;;;5.60;99.90;;;;;;5114849;28;20473;-82
2023/11/24 07:15:12;;;;;;;4.60;1.43;;;5.60;99.90;;;;;;5114849;28;20441;-81
2023/11/24 07:17:41;;;;;;;4.97;1.70;;;5.60;99.90;;;;;;5114654;28;20979;-81
2023/11/24 07:20:11;;;;;;;11.17;2.10;;;5.60;99.90;;;;;;5114940;28;20451;-81
2023/11/24 07:22:41;;;;;;;8.50;1.83;;;5.60;99.90;;;;;;5114215;28;20686;-81
2023/11/24 07:25:12;;;;;;;6.90;1.87;;;5.50;99.90;;;;;;5114906;28;20448;-82
2023/11/24 07:27:41;;;;;;;3.60;1.53;;;5.50;99.90;;;;;;5115100;28;20439;-82
2023/11/24 07:30:11;;;;;;;4.20;1.37;;;5.50;99.90;;;;;;5115198;28;20876;-81
2023/11/24 07:32:40;;;;;;;15.10;2.87;;;5.50;99.90;;;;;;5115763;28;20479;-82
2023/11/24 07:35:10;;;;;;;9.07;1.50;;;5.50;99.90;;;;;;5117003;28;20440;-81
2023/11/24 07:37:38;;;;;;;3.83;1.50;;;5.50;99.90;;;;;;5115360;28;20455;-81
2023/11/24 07:40:13;;;;;;;9.13;2.13;;;5.50;99.90;;;;;;5114926;28;20440;-81
2023/11/24 07:42:43;;;;;;;10.10;2.10;;;5.50;99.90;;;;;;5115159;28;20478;-81
2023/11/24 07:45:12;;;;;;;9.33;1.80;;;5.50;99.90;;;;;;5116099;28;20439;-80
2023/11/24 07:47:44;;;;;;;10.53;2.17;;;5.50;99.90;;;;;;5115855;28;20863;-81
2023/11/24 07:50:12;;;;;;;6.80;1.70;;;5.50;99.90;;;;;;5114717;28;20439;-81
2023/11/24 07:52:40;;;;;;;4.40;2.13;;;5.40;99.90;;;;;;5114026;28;21018;-80
2023/11/24 07:55:08;;;;;;;4.90;1.50;;;5.40;99.90;;;;;;5115683;28;20471;-81
2023/11/24 07:57:37;;;;;;;7.53;2.10;;;5.40;99.90;;;;;;5113949;28;20458;-80
2023/11/24 08:00:12;;;;;;;7.43;2.20;;;5.40;99.90;;;;;;5114162;28;20449;-81
2023/11/24 08:02:42;;;;;;;5.93;1.87;;;5.50;99.90;;;;;;5114351;28;20520;-80
2023/11/24 08:05:11;;;;;;;7.30;2.07;;;5.40;99.90;;;;;;5115765;28;20427;-81
2023/11/24 08:07:40;;;;;;;4.93;1.90;;;5.40;99.90;;;;;;5113764;28;20447;-80
2023/11/24 08:10:09;;;;;;;4.93;1.97;;;5.40;99.90;;;;;;5114049;28;20471;-81
2023/11/24 08:12:37;;;;;;;7.57;2.27;;;5.40;99.90;;;;;;5114211;28;20479;-80
2023/11/24 08:15:06;;;;;;;5.43;2.10;;;5.40;99.90;;;;;;5114107;28;20440;-81
2023/11/24 08:17:34;;;;;;;7.40;1.77;;;5.40;99.90;;;;;;5115447;28;20450;-80
2023/11/24 08:20:05;;;;;;;5.33;2.20;;;5.40;99.90;;;;;;5115403;28;20444;-80
2023/11/24 08:22:33;;;;;;;5.13;1.70;;;5.40;99.90;;;;;;5114002;28;20472;-80
2023/11/24 08:25:03;;;;;;;7.40;2.77;;;5.40;99.90;;;;;;5114267;28;20967;-81
2023/11/24 08:27:31;;;;;;;7.07;2.07;;;5.50;99.90;;;;;;5114359;28;20462;-80
2023/11/24 08:30:02;;;;;;;5.00;2.27;;;5.50;99.90;;;;;;5114261;28;20496;-79
2023/11/24 08:32:30;;;;;;;7.33;2.17;;;5.60;99.90;;;;;;5116276;28;20798;-81
2023/11/24 08:34:58;;;;;;;7.03;2.10;;;5.60;99.90;;;;;;5117681;28;20435;-79
2023/11/24 08:37:27;;;;;;;6.80;2.27;;;5.60;99.90;;;;;;5117665;28;21031;-80
2023/11/24 08:39:55;;;;;;;6.90;2.10;;;5.60;99.90;;;;;;5118925;28;20474;-82
2023/11/24 08:42:24;;;;;;;7.73;1.80;;;5.60;99.90;;;;;;5118501;28;20523;-80
2023/11/24 08:44:53;;;;;;;10.47;2.40;;;5.60;99.90;;;;;;5117089;28;20458;-80
2023/11/24 08:47:21;;;;;;;7.50;1.63;;;5.60;99.90;;;;;;5116771;28;20458;-82
2023/11/24 08:49:49;;;;;;;4.13;1.60;;;5.50;99.90;;;;;;5116683;28;20450;-83
2023/11/24 08:52:17;;;;;;;7.37;2.80;;;5.40;99.90;;;;;;5116537;28;20475;-82
2023/11/24 08:54:47;;;;;;;5.90;1.90;;;5.40;99.90;;;;;;5116561;28;20452;-82
2023/11/24 08:57:15;;;;;;;6.10;1.37;;;5.30;99.90;;;;;;5116105;28;20467;-81
2023/11/24 08:59:43;;;;;;;7.10;2.00;;;5.20;99.90;;;;;;5116365;28;20447;-81
2023/11/24 09:02:11;;;;;;;4.90;1.63;;;5.20;99.90;;;;;;5118027;28;20890;-81
2023/11/24 09:04:40;;;;;;;4.90;2.63;;;5.10;99.90;;;;;;5116374;28;20454;-81
2023/11/24 09:07:08;;;;;;;5.40;1.30;;;5.10;99.90;;;;;;5116969;28;20447;-81
2023/11/24 09:09:37;;;;;;;3.80;2.13;;;5.00;99.90;;;;;;5116260;28;20972;-81
2023/11/24 09:12:07;;;;;;;5.00;1.50;;;5.00;99.90;;;;;;5116334;28;20471;-81
2023/11/24 09:14:38;;;;;;;5.60;1.33;;;5.00;99.90;;;;;;5116232;28;20443;-81
2023/11/24 09:17:07;;;;;;;4.60;1.67;;;5.00;99.90;;;;;;5116801;28;20435;-81
2023/11/24 09:19:35;;;;;;;3.53;1.47;;;5.00;99.90;;;;;;5115886;28;20473;-82
2023/11/24 09:22:05;;;;;;;5.10;1.53;;;5.00;99.90;;;;;;5115766;28;20475;-81
2023/11/24 09:24:34;;;;;;;7.23;1.90;;;5.00;99.90;;;;;;5116204;28;20440;-80
2023/11/24 09:27:03;;;;;;;4.67;1.70;;;5.00;99.90;;;;;;5115715;28;20480;-81
2023/11/24 09:29:32;;;;;;;7.93;1.90;;;5.00;99.90;;;;;;5116943;28;20435;-80
2023/11/24 09:32:01;;;;;;;5.00;2.30;;;5.00;99.90;;;;;;5115683;28;20562;-81
2023/11/24 09:34:29;;;;;;;8.03;2.13;;;5.10;99.90;;;;;;5115654;28;20446;-82
2023/11/24 09:36:57;;;;;;;6.00;2.00;;;5.10;99.90;;;;;;5116431;28;20454;-81
2023/11/24 09:39:26;;;;;;;7.57;2.70;;;5.10;99.90;;;;;;5115630;28;20465;-80
2023/11/24 09:41:56;;;;;;;6.30;2.23;;;5.20;99.90;;;;;;5117457;28;20455;-83
2023/11/24 09:44:24;;;;;;;6.40;1.87;;;5.20;99.90;;;;;;5116682;27;20471;-82
2023/11/24 09:46:54;;;;;;;7.90;2.17;;;5.30;99.90;;;;;;5116886;28;20459;-82
2023/11/24 09:49:25;;;;;;;7.80;2.20;;;5.30;99.90;;;;;;5116760;28;20538;-81
2023/11/24 09:51:55;;;;;;;5.13;1.70;;;5.40;99.90;;;;;;5118439;28;20493;-81
2023/11/24 09:54:24;;;;;;;8.60;2.37;;;5.50;99.90;;;;;;5118595;28;20432;-82
2023/11/24 09:56:52;;;;;;;6.20;2.30;;;5.50;99.90;;;;;;5116961;28;20459;-81
2023/11/24 09:59:22;;;;;;;14.90;2.97;;;5.60;99.90;;;;;;5116959;28;20450;-82
2023/11/24 10:01:53;;;;;;;8.57;3.80;;;5.70;99.90;;;;;;5118432;28;20494;-80
2023/11/24 10:04:23;;;;;;;5.80;2.10;;;5.80;99.90;;;;;;5116868;28;20436;-82
2023/11/24 10:06:54;;;;;;;9.53;3.23;;;5.80;99.90;;;;;;5116372;28;20977;-81
2023/11/24 10:09:27;;;;;;;9.80;2.57;;;5.80;99.90;;;;;;5117015;28;20436;-82
2023/11/24 10:11:58;;;;;;;7.73;2.50;;;5.90;99.90;;;;;;5116978;28;20479;-82
2023/11/24 10:14:26;;;;;;;5.97;2.70;;;5.90;99.90;;;;;;5117160;28;20429;-82
2023/11/24 10:16:55;;;;;;;7.60;3.30;;;5.90;99.90;;;;;;5118150;28;20774;-81
2023/11/24 10:19:27;;;;;;;7.70;2.50;;;5.90;99.90;;;;;;5117005;28;20502;-81
2023/11/24 10:21:56;;;;;;;6.40;1.93;;;6.00;99.90;;;;;;5116453;28;20548;-82
2023/11/24 10:24:25;;;;;;;10.17;2.70;;;6.00;99.90;;;;;;5116809;28;20472;-81
2023/11/24 10:26:53;;;;;;;4.37;2.10;;;6.00;99.90;;;;;;5116666;28;20861;-81
2023/11/24 10:29:24;;;;;;;5.50;1.90;;;6.10;99.90;;;;;;5118779;28;20446;-82
2023/11/24 10:31:52;;;;;;;6.30;2.23;;;6.10;99.90;;;;;;5118247;28;20502;-80
2023/11/24 10:34:21;;;;;;;3.70;1.87;;;6.20;99.90;;;;;;5117609;28;20522;-81
2023/11/24 10:36:51;;;;;;;6.43;2.07;;;6.30;99.90;;;;;;5116043;28;20548;-81
2023/11/24 10:39:22;;;;;;;6.20;2.63;;;6.30;99.90;;;;;;5116478;28;20947;-82
2023/11/24 10:41:54;;;;;;;8.43;2.20;;;6.30;99.90;;;;;;5115798;28;20904;-82
2023/11/24 10:44:24;;;;;;;8.97;1.77;;;6.30;99.90;;;;;;5115726;28;20446;-82
2023/11/24 10:46:57;;;;;;;5.47;1.23;;;6.20;99.90;;;;;;5115090;28;20444;-82
2023/11/24 10:49:35;;;;;;;5.50;2.50;;;6.20;99.90;;;;;;5115631;28;20926;-81
2023/11/24 10:52:13;;;;;;;5.77;2.33;;;6.20;99.90;;;;;;5114853;28;20467;-82
2023/11/24 10:54:50;;;;;;;9.13;3.07;;;6.20;99.90;;;;;;5115345;28;20531;-82
2023/11/24 10:57:22;;;;;;;8.50;2.93;;;6.20;99.90;;;;;;5113951;28;20832;-80
2023/11/24 10:59:51;;;;;;;6.57;2.63;;;6.20;99.90;;;;;;5114659;28;20935;-81
2023/11/24 11:02:20;;;;;;;9.20;3.70;;;6.20;99.90;;;;;;5114481;28;20455;-81
2023/11/24 11:05:00;;;;;;;7.30;2.40;;;6.20;99.90;;;;;;5114558;28;20447;-83
2023/11/24 11:07:37;;;;;;;6.70;1.87;;;6.10;99.90;;;;;;5114887;28;20443;-83
2023/11/24 11:10:12;;;;;;;4.60;1.80;;;6.10;99.90;;;;;;5114786;28;20474;-82
2023/11/24 11:12:49;;;;;;;2.80;1.23;;;6.00;99.90;;;;;;5114990;28;20471;-83
2023/11/24 11:15:23;;;;;;;6.70;1.60;;;5.90;99.90;;;;;;5114834;28;20508;-82
2023/11/24 11:18:07;;;;;;;6.43;1.70;;;5.90;99.90;;;;;;5115035;28;20439;-82
2023/11/24 11:20:38;;;;;;;4.37;1.30;;;5.80;99.90;;;;;;5115269;28;20433;-82
2023/11/24 11:23:09;;;;;;;5.20;1.47;;;5.70;99.90;;;;;;5115008;28;20896;-82
2023/11/24 11:25:42;;;;;;;9.23;3.07;;;5.70;99.90;;;;;;5114888;28;20552;-81
2023/11/24 11:28:37;;;;;;;4.23;1.30;;;5.60;99.90;;;;;;5114570;28;20435;-82
2023/11/24 11:31:32;;;;;;;4.80;1.60;;;5.60;99.90;;;;;;5114414;28;20526;-81
2023/11/24 11:34:16;;;;;;;6.50;1.53;;;5.60;99.90;;;;;;5114685;28;20466;-81
2023/11/24 11:37:04;;;;;;;4.27;1.20;;;5.60;99.90;;;;;;5115194;28;20441;-81
2023/11/24 11:39:43;;;;;;;4.80;1.00;;;5.70;99.90;;;;;;5114437;28;20443;-82
2023/11/24 11:42:12;;;;;;;6.13;1.80;;;5.70;99.90;;;;;;5114192;28;20565;-81
2023/11/24 11:44:46;;;;;;;2.90;1.00;;;5.70;99.90;;;;;;5114898;28;20493;-79
2023/11/24 11:47:20;;;;;;;3.20;1.50;;;5.70;99.90;;;;;;5116077;28;20424;-82
2023/11/24 11:49:53;;;;;;;6.13;2.07;;;5.70;99.90;;;;;;5116160;28;20462;-82
2023/11/24 11:52:25;;;;;;;5.10;2.37;;;5.70;99.90;;;;;;5114457;28;20471;-81
2023/11/24 11:54:58;;;;;;;6.53;1.97;;;5.70;99.90;;;;;;5114248;28;20471;-81
2023/11/24 11:57:27;;;;;;;4.87;1.60;;;5.80;99.90;;;;;;5114308;28;20802;-84
2023/11/24 11:59:56;;;;;;;6.87;1.87;;;5.80;99.90;;;;;;5114688;28;20487;-81
2023/11/24 12:02:25;;;;;;;4.03;1.60;;;5.80;99.90;;;;;;5114251;28;20467;-82
2023/11/24 12:04:53;;;;;;;5.50;1.90;;;5.90;99.90;;;;;;5114840;28;20478;-82
2023/11/24 12:07:22;;;;;;;6.13;1.93;;;5.90;99.90;;;;;;5114347;28;20448;-81
2023/11/24 12:09:50;;;;;;;6.60;2.00;;;5.90;99.90;;;;;;5118660;28;20460;-83
2023/11/24 12:12:20;;;;;;;5.87;2.53;;;5.90;99.90;;;;;;5118245;28;20463;-80
2023/11/24 12:14:51;;;;;;;8.10;3.00;;;6.00;99.90;;;;;;5118608;28;20464;-80
2023/11/24 12:17:19;;;;;;;6.30;2.60;;;6.00;99.90;;;;;;5118228;28;20445;-81
2023/11/24 12:19:48;;;;;;;10.47;2.73;;;6.10;99.90;;;;;;5118351;28;20444;-83
2023/11/24 12:22:18;;;;;;;8.73;2.17;;;6.10;99.90;;;;;;5119662;28;20459;-81
2023/11/24 12:24:47;;;;;;;6.37;2.27;;;6.10;99.90;;;;;;5118480;28;20519;-80
2023/11/24 12:27:15;;;;;;;7.50;2.30;;;6.10;99.90;;;;;;5119749;28;20461;-81
2023/11/24 12:29:46;;;;;;;7.63;2.50;;;6.10;99.90;;;;;;5118693;28;20524;-81
2023/11/24 12:32:14;;;;;;;7.20;2.10;;;6.20;99.90;;;;;;5118617;28;20468;-81
2023/11/24 12:34:45;;;;;;;4.53;2.10;;;6.20;99.90;;;;;;5118006;28;20535;-80
2023/11/24 12:37:14;;;;;;;7.73;2.77;;;6.30;99.90;;;;;;5118700;28;20440;-81
2023/11/24 12:39:43;;;;;;;9.43;2.43;;;6.30;99.90;;;;;;5118225;28;20447;-80
2023/11/24 12:42:11;;;;;;;7.63;2.23;;;6.30;99.90;;;;;;5117653;28;20463;-82
2023/11/24 12:44:41;;;;;;;14.03;2.83;;;6.30;99.90;;;;;;5119906;28;20436;-83
2023/11/24 12:47:13;;;;;;;10.60;2.90;;;6.30;99.90;;;;;;5118121;28;20448;-82
2023/11/24 12:50:11;;;;;;;6.20;1.80;;;6.30;99.90;;;;;;5118883;28;20500;-81
2023/11/24 12:52:42;;;;;;;6.10;1.90;;;6.30;99.90;;;;;;5073472;28;20984;-82
2023/11/24 12:55:10;;;;;;;6.00;2.00;;;6.40;99.90;;;;;;5117796;28;20464;-83
2023/11/24 12:57:41;;;;;;;7.03;2.07;;;6.40;99.90;;;;;;5119478;28;20465;-80
2023/11/24 13:00:13;;;;;;;5.70;2.30;;;6.40;99.90;;;;;;5118824;28;20445;-83
2023/11/24 13:02:44;;;;;;;6.90;2.47;;;6.50;99.90;;;;;;5118608;28;21014;-83
2023/11/24 13:05:15;;;;;;;7.47;2.37;;;6.50;99.90;;;;;;5122383;28;20429;-84
2023/11/24 13:07:44;;;;;;;8.23;3.10;;;6.50;99.90;;;;;;5118781;28;20451;-82